Time;durP1;ratioP1;P1;durP2;ratioP2;P2;SDS_P1;SDS_P2;PMS_P1;PMS_P2;Temp;Humidity;BMP_temperature;BMP_pressure;BME280_temperature;BME280_humidity;BME280_pressure;Samples;Min_cycle;Max_cycle;Signal;HPM_P1;HPM_P2
2022/11/17 00:01:45;;;;;;;32.03;17.33;;;;;;;;;;5051102;28;20616;-63
2022/11/17 00:04:11;;;;;;;31.13;15.68;;;;;;;;;;5053849;28;20125;-63
2022/11/17 00:06:37;;;;;;;27.70;15.88;;;;;;;;;;5041999;28;20116;-64
2022/11/17 00:09:03;;;;;;;28.10;16.80;;;;;;;;;;5052610;28;20049;-64
2022/11/17 00:14:31;;;;;;;27.55;14.95;;;;;;;;;;5035005;28;20169;-65
2022/11/17 00:14:35;;;;;;;24.30;13.77;;;;;;;;;;5020273;28;20103;-64
2022/11/17 00:17:02;;;;;;;29.88;17.15;;;;;;;;;;5030423;28;20413;-63
2022/11/17 00:22:15;;;;;;;24.73;12.10;;;;;;;;;;5076628;23;20077;-64
2022/11/17 00:24:41;;;;;;;25.95;14.52;;;;;;;;;;5066859;22;20139;-64
2022/11/17 00:27:08;;;;;;;25.52;14.55;;;;;;;;;;5036018;28;20040;-64
2022/11/17 00:29:34;;;;;;;31.80;13.07;;;;;;;;;;5053168;28;20048;-66
2022/11/17 00:34:44;;;;;;;26.60;14.57;;;;;;;;;;5054995;28;20041;-64
2022/11/17 00:37:11;;;;;;;26.80;16.38;;;;;;;;;;5036593;28;20076;-64
2022/11/17 00:42:17;;;;;;;22.93;12.73;;;;;;;;;;5059710;22;20095;-64
2022/11/17 00:44:43;;;;;;;23.27;15.05;;;;;;;;;;5052175;28;20541;-64
2022/11/17 00:47:09;;;;;;;23.60;12.75;;;;;;;;;;5070626;28;20044;-64
2022/11/17 00:49:35;;;;;;;22.80;14.55;;;;;;;;;;5035372;28;20049;-64
2022/11/17 00:52:02;;;;;;;26.55;14.93;;;;;;;;;;5033111;28;20504;-61
2022/11/17 00:54:28;;;;;;;30.52;16.45;;;;;;;;;;5022074;28;20198;-64
2022/11/17 00:56:54;;;;;;;21.98;12.55;;;;;;;;;;5034153;28;20055;-64
2022/11/17 00:59:20;;;;;;;24.50;13.98;;;;;;;;;;5042614;28;20489;-66
2022/11/17 01:01:46;;;;;;;21.20;11.90;;;;;;;;;;5029093;28;20080;-65
2022/11/17 01:04:13;;;;;;;21.30;13.63;;;;;;;;;;5052616;28;20103;-64
2022/11/17 01:06:40;;;;;;;21.08;13.20;;;;;;;;;;5034574;28;20064;-64
2022/11/17 01:09:09;;;;;;;24.70;13.35;;;;;;;;;;5051845;28;20059;-64
2022/11/17 01:11:35;;;;;;;19.90;11.35;;;;;;;;;;5033101;28;20033;-65
2022/11/17 01:14:01;;;;;;;20.70;11.35;;;;;;;;;;5039422;28;20106;-64
2022/11/17 01:16:28;;;;;;;22.90;14.82;;;;;;;;;;5019654;28;20081;-64
2022/11/17 01:18:54;;;;;;;25.10;15.35;;;;;;;;;;5045620;28;20497;-64
2022/11/17 01:21:22;;;;;;;26.00;14.80;;;;;;;;;;5051293;28;20048;-65
2022/11/17 01:23:49;;;;;;;17.08;9.88;;;;;;;;;;5030964;28;20056;-65
2022/11/17 01:26:17;;;;;;;21.63;13.45;;;;;;;;;;5051932;28;20091;-64
2022/11/17 01:28:43;;;;;;;18.17;10.93;;;;;;;;;;5027445;28;20104;-64
2022/11/17 01:31:11;;;;;;;22.50;13.05;;;;;;;;;;5018518;28;20048;-64
2022/11/17 01:33:37;;;;;;;24.48;12.73;;;;;;;;;;5043640;28;20478;-64
2022/11/17 01:36:05;;;;;;;22.33;12.80;;;;;;;;;;5051479;28;20044;-64
2022/11/17 01:38:31;;;;;;;20.70;13.00;;;;;;;;;;5040416;28;20045;-64
2022/11/17 01:41:01;;;;;;;21.63;13.32;;;;;;;;;;5026157;28;20496;-64
2022/11/17 01:43:36;;;;;;;24.67;11.55;;;;;;;;;;5038041;28;20132;-65
2022/11/17 01:46:02;;;;;;;27.77;14.20;;;;;;;;;;5051261;28;20378;-65
2022/11/17 01:48:28;;;;;;;22.48;14.45;;;;;;;;;;5049900;28;20049;-66
2022/11/17 01:50:54;;;;;;;21.08;13.02;;;;;;;;;;5037602;28;20402;-66
2022/11/17 01:53:21;;;;;;;19.48;11.63;;;;;;;;;;5022899;28;20102;-66
2022/11/17 01:55:50;;;;;;;25.10;14.10;;;;;;;;;;5052815;28;20044;-67
2022/11/17 01:58:20;;;;;;;21.42;12.10;;;;;;;;;;5041107;28;20045;-67
2022/11/17 02:00:46;;;;;;;26.10;14.35;;;;;;;;;;5050990;28;20048;-67
2022/11/17 02:03:13;;;;;;;23.98;14.20;;;;;;;;;;5047107;28;20087;-67
2022/11/17 02:05:47;;;;;;;22.08;12.55;;;;;;;;;;5058517;28;20469;-67
2022/11/17 02:08:16;;;;;;;24.42;15.20;;;;;;;;;;5059707;28;20052;-69
2022/11/17 02:10:43;;;;;;;22.50;12.80;;;;;;;;;;5021559;28;20049;-71
2022/11/17 02:13:09;;;;;;;24.13;13.45;;;;;;;;;;5050456;28;20044;-72
2022/11/17 02:15:35;;;;;;;23.10;15.23;;;;;;;;;;5037019;28;20051;-73
2022/11/17 02:18:01;;;;;;;27.83;14.45;;;;;;;;;;5025447;28;20110;-73
2022/11/17 02:20:46;;;;;;;24.48;13.68;;;;;;;;;;5040555;28;20053;-74
2022/11/17 02:23:21;;;;;;;22.20;12.82;;;;;;;;;;5051290;28;20108;-74
2022/11/17 02:26:10;;;;;;;23.92;13.48;;;;;;;;;;5054021;28;20497;-71
2022/11/17 02:28:39;;;;;;;25.85;15.77;;;;;;;;;;5040244;28;20203;-72
2022/11/17 02:31:08;;;;;;;20.80;13.95;;;;;;;;;;5051267;28;20052;-70
2022/11/17 02:33:54;;;;;;;24.63;14.60;;;;;;;;;;5034428;28;20049;-70
2022/11/17 02:36:26;;;;;;;28.13;14.50;;;;;;;;;;5034388;28;20053;-69
2022/11/17 02:38:58;;;;;;;24.50;13.85;;;;;;;;;;5053212;28;20497;-71
2022/11/17 02:41:30;;;;;;;30.30;15.82;;;;;;;;;;5045151;28;20068;-70
2022/11/17 02:44:02;;;;;;;22.70;14.10;;;;;;;;;;5050261;28;20044;-72
2022/11/17 02:46:29;;;;;;;26.52;14.60;;;;;;;;;;5058250;28;20056;-72
2022/11/17 02:49:01;;;;;;;26.90;15.02;;;;;;;;;;5036903;28;20175;-71
2022/11/17 02:51:28;;;;;;;21.88;12.95;;;;;;;;;;5058409;28;20045;-69
2022/11/17 02:53:55;;;;;;;22.77;14.45;;;;;;;;;;5037725;28;20068;-70
2022/11/17 02:56:21;;;;;;;24.80;15.15;;;;;;;;;;5032329;28;20595;-73
2022/11/17 02:58:50;;;;;;;24.85;15.93;;;;;;;;;;5052031;28;20408;-77
2022/11/17 03:01:19;;;;;;;20.25;12.25;;;;;;;;;;5055284;28;20048;-75
2022/11/17 03:03:57;;;;;;;25.55;13.40;;;;;;;;;;5052438;28;20056;-76
2022/11/17 03:06:36;;;;;;;18.83;12.13;;;;;;;;;;5056047;28;20056;-75
2022/11/17 03:09:10;;;;;;;22.23;12.57;;;;;;;;;;5054498;28;20055;-75
2022/11/17 03:11:44;;;;;;;22.63;12.73;;;;;;;;;;5051468;28;20485;-77
2022/11/17 03:14:22;;;;;;;20.95;12.43;;;;;;;;;;5053649;28;20045;-76
2022/11/17 03:16:56;;;;;;;22.92;15.07;;;;;;;;;;5042671;28;21304;-74
2022/11/17 03:19:22;;;;;;;25.63;12.68;;;;;;;;;;5041492;28;20069;-74
2022/11/17 03:21:51;;;;;;;24.23;14.98;;;;;;;;;;5054442;28;20496;-72
2022/11/17 03:24:23;;;;;;;21.33;12.55;;;;;;;;;;5037827;28;20056;-72
2022/11/17 03:26:54;;;;;;;24.25;13.63;;;;;;;;;;5043409;28;20481;-73
2022/11/17 03:29:22;;;;;;;19.50;12.75;;;;;;;;;;5032258;28;20052;-71
2022/11/17 03:31:49;;;;;;;21.83;12.60;;;;;;;;;;5041064;28;20037;-74
2022/11/17 03:34:17;;;;;;;15.75;9.07;;;;;;;;;;5053796;28;20076;-70
2022/11/17 03:36:47;;;;;;;21.13;11.00;;;;;;;;;;5035273;28;20135;-72
2022/11/17 03:39:17;;;;;;;16.90;10.18;;;;;;;;;;5036703;28;20128;-73
2022/11/17 03:41:45;;;;;;;22.90;12.73;;;;;;;;;;5041892;28;20107;-73
2022/11/17 03:44:13;;;;;;;25.63;14.70;;;;;;;;;;5037242;28;21375;-73
2022/11/17 03:46:42;;;;;;;20.30;10.32;;;;;;;;;;5039205;28;20055;-70
2022/11/17 03:49:26;;;;;;;17.40;11.07;;;;;;;;;;5040601;28;20049;-72
2022/11/17 03:51:52;;;;;;;13.48;8.68;;;;;;;;;;5062028;28;20041;-71
2022/11/17 03:54:18;;;;;;;21.98;13.00;;;;;;;;;;5029334;28;20045;-71
2022/11/17 03:56:54;;;;;;;20.63;8.70;;;;;;;;;;5016344;28;20049;-69
2022/11/17 04:01:46;;;;;;;19.45;11.93;;;;;;;;;;5057334;22;20445;-69
2022/11/17 04:04:14;;;;;;;22.40;11.95;;;;;;;;;;5066883;23;20068;-70
2022/11/17 04:06:40;;;;;;;17.33;11.35;;;;;;;;;;5034030;23;20057;-70
2022/11/17 04:09:06;;;;;;;16.55;12.02;;;;;;;;;;5018206;28;20041;-68
2022/11/17 04:17:01;;;;;;;16.42;11.15;;;8.90;99.90;;;;;;5059714;22;20057;-70
2022/11/17 04:19:27;;;;;;;16.90;10.98;;;;;;;;;;5038562;22;20060;-70
2022/11/17 04:21:53;;;;;;;20.27;12.00;;;;;;;;;;5039737;28;20062;-70
2022/11/17 04:24:19;;;;;;;16.88;9.25;;;;;;;;;;5052808;28;20520;-69
2022/11/17 04:29:30;;;;;;;17.40;9.48;;;;;;;;;;5053039;28;20049;-69
2022/11/17 04:31:56;;;;;;;18.83;12.18;;;;;;;;;;5044618;28;20592;-70
2022/11/17 04:34:22;;;;;;;18.50;10.43;;;;;;;;;;5044883;28;20041;-68
2022/11/17 04:36:49;;;;;;;18.08;10.23;;;;;;;;;;5052797;28;20045;-68
2022/11/17 04:39:16;;;;;;;19.60;11.50;;;;;;;;;;5048756;28;20045;-68
2022/11/17 04:41:56;;;;;;;15.00;8.43;;;;;;;;;;5051312;28;20404;-69
2022/11/17 04:44:29;;;;;;;17.00;11.40;;;;;;;;;;5052912;28;20051;-68
2022/11/17 04:46:55;;;;;;;24.08;12.13;;;;;;;;;;5042699;28;20132;-68
2022/11/17 04:49:22;;;;;;;15.52;11.10;;;;;;;;;;5025026;28;20102;-69
2022/11/17 04:51:49;;;;;;;16.02;10.63;;;;;;;;;;5021002;28;20473;-69
2022/11/17 04:54:16;;;;;;;19.58;11.02;;;;;;;;;;5044901;28;20044;-69
2022/11/17 04:56:42;;;;;;;18.50;10.40;;;;;;;;;;5051563;28;20098;-68
2022/11/17 04:59:08;;;;;;;20.05;11.05;;;;;;;;;;5052636;28;20460;-69
2022/11/17 05:01:35;;;;;;;19.92;12.55;;;;;;;;;;5051970;28;20045;-72
2022/11/17 05:04:02;;;;;;;18.27;10.55;;;;;;;;;;5037326;28;20049;-69
2022/11/17 05:06:32;;;;;;;21.98;12.60;;;;;;;;;;5046678;28;20047;-68
2022/11/17 05:08:59;;;;;;;20.15;12.15;;;;;;;;;;5052285;28;20083;-68
2022/11/17 05:14:12;;;;;;;13.65;8.40;;;;;;;;;;5051011;28;20045;-67
2022/11/17 05:19:24;;;;;;;16.40;10.27;;;;;;;;;;5051743;28;20057;-69
2022/11/17 05:21:51;;;;;;;14.68;9.48;;;;;;;;;;5050640;28;20051;-68
2022/11/17 05:24:17;;;;;;;17.30;10.70;;;;;;;;;;5042668;28;20480;-70
2022/11/17 05:26:44;;;;;;;14.27;8.52;;;;;;;;;;5051566;28;20053;-68
2022/11/17 05:29:11;;;;;;;16.15;9.75;;;;;;;;;;5030703;28;20072;-67
2022/11/17 05:31:37;;;;;;;14.75;8.90;;;;;;;;;;5048952;28;20048;-69
2022/11/17 05:34:04;;;;;;;13.85;9.15;;;;;;;;;;5039465;28;20041;-69
2022/11/17 05:36:30;;;;;;;16.85;10.05;;;;;;;;;;5039937;28;20044;-68
2022/11/17 05:38:56;;;;;;;10.13;7.55;;;;;;;;;;5056820;28;20057;-68
2022/11/17 05:41:23;;;;;;;10.63;7.43;;;;;;;;;;5050876;28;20043;-67
2022/11/17 05:43:49;;;;;;;10.80;7.78;;;;;;;;;;5020256;28;20535;-68
2022/11/17 05:46:17;;;;;;;12.70;8.82;;;;;;;;;;5038167;28;20049;-67
2022/11/17 05:48:43;;;;;;;12.95;7.95;;;;;;;;;;5019077;28;20059;-67
2022/11/17 05:51:09;;;;;;;11.52;8.10;;;;;;;;;;5017515;28;20041;-67
2022/11/17 05:53:35;;;;;;;11.52;7.18;;;;;;;;;;5023687;28;20414;-67
2022/11/17 05:56:08;;;;;;;9.38;6.05;;;;;;;;;;5014529;28;20045;-68
2022/11/17 05:58:35;;;;;;;10.52;7.63;;;;;;;;;;5031966;28;20053;-69
2022/11/17 06:01:02;;;;;;;11.18;7.30;;;;;;;;;;5035470;28;20068;-67
2022/11/17 06:03:31;;;;;;;7.97;5.40;;;;;;;;;;5036392;28;20044;-67
2022/11/17 06:05:57;;;;;;;10.82;7.30;;;;;;;;;;5051370;28;20094;-67
2022/11/17 06:08:24;;;;;;;8.50;6.90;;;;;;;;;;5033970;28;20051;-67
2022/11/17 06:10:50;;;;;;;10.73;6.85;;;;;;;;;;5045315;28;20053;-69
2022/11/17 06:13:18;;;;;;;9.00;5.90;;;;;;;;;;5048628;28;20090;-71
2022/11/17 06:15:45;;;;;;;9.00;6.97;;;;;;;;;;5038078;28;20057;-71
2022/11/17 06:18:15;;;;;;;11.38;7.60;;;;;;;;;;5053340;28;20076;-73
2022/11/17 06:20:41;;;;;;;;;;;;;;;;;;5054041;28;20084;-71
2022/11/17 06:23:08;;;;;;;10.77;7.55;;;;;;;;;;5071261;28;19974;-74
2022/11/17 06:25:35;;;;;;;7.53;5.25;;;;;;;;;;5056101;28;20093;-75
2022/11/17 06:28:02;;;;;;;12.50;8.32;;;;;;;;;;5033845;28;20053;-72
2022/11/17 06:30:28;;;;;;;11.48;6.40;;;;;;;;;;5003262;28;20131;-70
2022/11/17 06:32:55;;;;;;;7.65;5.68;;;;;;;;;;5038829;28;20409;-69
2022/11/17 06:35:22;;;;;;;10.90;8.38;;;;;;;;;;5044634;28;20043;-69
2022/11/17 06:37:48;;;;;;;8.75;5.88;;;;;;;;;;5055673;28;20044;-70
2022/11/17 06:40:14;;;;;;;12.18;7.75;;;;;;;;;;5054200;28;20044;-73
2022/11/17 06:45:25;;;;;;;9.90;6.38;;;;;;;;;;5039679;28;20049;-69
2022/11/17 06:47:54;;;;;;;10.55;6.70;;;;;;;;;;5059642;28;20044;-69
2022/11/17 06:50:20;;;;;;;11.45;7.20;;;;;;;;;;5044443;28;20056;-69
2022/11/17 06:52:48;;;;;;;7.75;5.15;;;;;;;;;;5035605;28;20040;-69
2022/11/17 06:55:15;;;;;;;11.35;7.85;;;;;;;;;;5035656;28;20386;-69
2022/11/17 06:57:41;;;;;;;11.57;7.30;;;;;;;;;;5037242;28;20049;-69
2022/11/17 07:00:07;;;;;;;9.27;6.90;;;;;;;;;;5037145;28;20404;-68
2022/11/17 07:02:33;;;;;;;12.73;8.65;;;;;;;;;;5054689;28;20087;-68
2022/11/17 07:04:59;;;;;;;11.18;8.32;;;;;;;;;;5048286;28;20505;-68
2022/11/17 07:07:25;;;;;;;11.00;6.57;;;;;;;;;;5050208;28;20562;-68
2022/11/17 07:09:51;;;;;;;9.70;7.28;;;;;;;;;;5042797;28;20072;-68
2022/11/17 07:12:17;;;;;;;10.52;6.65;;;;;;;;;;5055049;28;20485;-68
2022/11/17 07:14:43;;;;;;;13.65;8.30;;;;;;;;;;5037120;28;20128;-68
2022/11/17 07:17:09;;;;;;;10.73;7.20;;;;;;;;;;5021299;28;20449;-69
2022/11/17 07:19:35;;;;;;;10.75;7.90;;;;;;;;;;5041042;28;20171;-68
2022/11/17 07:22:02;;;;;;;11.55;7.90;;;;;;;;;;5053735;28;20132;-69
2022/11/17 07:24:28;;;;;;;8.95;5.80;;;;;;;;;;5054511;28;20542;-68
2022/11/17 07:26:54;;;;;;;9.63;7.57;;;;;;;;;;5054649;28;20119;-68
2022/11/17 07:29:21;;;;;;;9.95;6.93;;;;;;;;;;5048622;28;20183;-67
2022/11/17 07:31:47;;;;;;;10.07;6.78;;;;;;;;;;5053189;28;20037;-68
2022/11/17 07:34:13;;;;;;;10.98;8.15;;;;;;;;;;5034488;28;20040;-68
2022/11/17 07:36:39;;;;;;;10.80;7.28;;;;;;;;;;5023582;28;20413;-68
2022/11/17 07:39:05;;;;;;;7.90;6.30;;;;;;;;;;5051718;22;20056;-68
2022/11/17 07:41:31;;;;;;;11.02;8.00;;;;;;;;;;5054552;28;20044;-68
2022/11/17 07:43:58;;;;;;;10.65;7.10;;;;;;;;;;5036564;28;20044;-70
2022/11/17 07:46:24;;;;;;;10.75;7.25;;;;;;;;;;5020259;28;20051;-68
2022/11/17 07:48:55;;;;;;;12.32;8.57;;;;;;;;;;5054097;28;20044;-70
2022/11/17 07:51:21;;;;;;;10.07;6.90;;;;;;;;;;5036318;28;20200;-71
2022/11/17 07:53:47;;;;;;;10.88;8.23;;;;;;;;;;5053158;28;20045;-73
2022/11/17 07:56:13;;;;;;;9.63;6.43;;;;;;;;;;5052485;23;20046;-72
2022/11/17 07:58:40;;;;;;;10.52;6.70;;;;;;;;;;5046760;23;20359;-71
2022/11/17 08:01:07;;;;;;;10.48;7.55;;;;;;;;;;5032118;28;20067;-72
2022/11/17 08:03:33;;;;;;;10.05;6.85;;;;;;;;;;5015619;28;20053;-72
2022/11/17 08:06:03;;;;;;;11.85;8.25;;;;;;;;;;5028610;28;20068;-72
2022/11/17 08:08:29;;;;;;;12.20;7.70;;;;;;;;;;5012698;28;20076;-71
2022/11/17 08:10:55;;;;;;;9.77;6.50;;;;;;;;;;5031041;28;20096;-71
2022/11/17 08:13:21;;;;;;;12.15;8.25;;;;;;;;;;5015274;28;20087;-71
2022/11/17 08:15:47;;;;;;;9.52;7.03;;;;;;;;;;5033085;28;20127;-70
2022/11/17 08:18:13;;;;;;;11.93;7.28;;;;;;;;;;5032991;28;20046;-70
2022/11/17 08:20:39;;;;;;;9.52;6.00;;;;;;;;;;5031098;28;20041;-71
2022/11/17 08:23:05;;;;;;;11.43;6.78;;;;;;;;;;5031181;28;20184;-69
2022/11/17 08:25:31;;;;;;;8.32;6.22;;;;;;;;;;5030721;28;20043;-71
2022/11/17 08:27:58;;;;;;;8.85;6.30;;;;;;;;;;5030609;28;20057;-70
2022/11/17 08:30:25;;;;;;;10.57;6.80;;;;;;;;;;5021350;28;20056;-71
2022/11/17 08:32:51;;;;;;;9.25;5.95;;;;;;;;;;5013637;28;20049;-71
2022/11/17 08:35:22;;;;;;;10.27;7.07;;;;;;;;;;5001020;28;20132;-72
2022/11/17 08:37:48;;;;;;;10.25;7.88;;;;;;;;;;5041110;28;20564;-73
2022/11/17 08:40:14;;;;;;;9.77;6.90;;;;;;;;;;5019855;28;20049;-72
2022/11/17 08:42:40;;;;;;;9.40;6.57;;;;;;;;;;5031811;28;20592;-71
2022/11/17 08:45:07;;;;;;;9.55;6.25;;;;;;;;;;5017934;28;20124;-71
2022/11/17 08:47:33;;;;;;;10.05;7.22;;;;;;;;;;5032021;28;20102;-74
2022/11/17 08:49:59;;;;;;;9.65;7.03;;;;;;;;;;5013631;28;20042;-71
2022/11/17 08:52:26;;;;;;;11.27;7.85;;;;;;;;;;5016092;28;20104;-72
2022/11/17 08:54:52;;;;;;;13.52;7.88;;;;;;;;;;5018799;28;20069;-72
2022/11/17 08:57:20;;;;;;;9.63;7.13;;;;;;;;;;5043066;28;20477;-72
2022/11/17 08:59:47;;;;;;;9.88;7.43;;;;;;;;;;4994192;28;1136681;-71
2022/11/17 09:02:13;;;;;;;10.98;8.32;;;;;;;;;;5025804;28;20083;-72
2022/11/17 09:04:39;;;;;;;11.65;8.43;;;;;;;;;;5030014;28;20085;-73
2022/11/17 09:07:05;;;;;;;12.05;7.30;;;;;;;;;;5026083;28;20080;-72
2022/11/17 09:09:31;;;;;;;13.23;8.80;;;;;;;;;;5031242;28;20493;-71
2022/11/17 09:11:57;;;;;;;10.18;6.45;;;;;;;;;;5021677;28;20485;-72
2022/11/17 09:14:24;;;;;;;13.57;8.30;;;;;;;;;;5042745;28;20057;-71
2022/11/17 09:16:50;;;;;;;11.68;8.82;;;;;;;;;;5049903;28;20045;-71
2022/11/17 09:19:16;;;;;;;12.07;9.05;;;;;;;;;;5038030;28;20049;-71
2022/11/17 09:21:42;;;;;;;10.00;7.60;;;;;;;;;;5028910;28;20049;-73
2022/11/17 09:24:09;;;;;;;9.93;7.55;;;;;;;;;;5030766;28;20046;-72
2022/11/17 09:26:39;;;;;;;11.00;7.43;;;;;;;;;;5023580;28;20398;-70
2022/11/17 09:29:05;;;;;;;12.10;8.63;;;;;;;;;;5022571;28;20073;-71
2022/11/17 09:31:31;;;;;;;10.60;8.55;;;;;;;;;;5025855;28;20049;-72
2022/11/17 09:33:57;;;;;;;14.15;8.60;;;;;;;;;;5016951;28;20600;-71
2022/11/17 09:36:24;;;;;;;8.68;6.72;;;;;;;;;;5030798;28;20124;-72
2022/11/17 09:38:50;;;;;;;10.93;8.02;;;;;;;;;;5029080;28;20473;-70
2022/11/17 09:41:16;;;;;;;9.93;6.88;;;;;;;;;;5031066;28;20134;-70
2022/11/17 09:43:56;;;;;;;10.30;6.95;;;;;;;;;;5026585;28;20529;-69
2022/11/17 09:46:27;;;;;;;11.13;7.85;;;;;;;;;;5034638;28;20123;-70
2022/11/17 09:48:56;;;;;;;9.60;6.32;;;;;;;;;;5023457;28;20053;-71
2022/11/17 09:51:24;;;;;;;13.57;7.72;;;;;;;;;;5018814;28;20061;-70
2022/11/17 09:53:53;;;;;;;10.40;7.10;;;;;;;;;;5021861;28;20045;-70
2022/11/17 09:56:19;;;;;;;10.63;7.75;;;;;;;;;;5036630;28;20049;-70
2022/11/17 09:58:52;;;;;;;13.35;7.18;;;;;;;;;;5036212;28;20052;-69
2022/11/17 10:01:20;;;;;;;10.88;7.53;;;;;;;;;;5051931;28;20128;-71
2022/11/17 10:03:47;;;;;;;10.25;7.20;;;;;;;;;;5047003;28;20052;-71
2022/11/17 10:06:15;;;;;;;13.77;7.82;;;;;;;;;;5037050;28;20036;-71
2022/11/17 10:08:50;;;;;;;10.88;7.30;;;;;;;;;;5057461;28;20056;-73
2022/11/17 10:11:32;;;;;;;8.95;6.40;;;;;;;;;;5031437;28;20576;-73
2022/11/17 10:14:02;;;;;;;10.48;6.93;;;;;;;;;;5016686;28;20202;-72
2022/11/17 10:16:28;;;;;;;11.10;7.32;;;;;;;;;;5049197;28;20060;-72
2022/11/17 10:18:54;;;;;;;8.30;6.13;;;;;;;;;;5033219;28;20049;-71
2022/11/17 10:21:20;;;;;;;8.02;5.88;;;;;;;;;;5031942;28;20477;-71
2022/11/17 10:23:52;;;;;;;9.02;6.43;;;;;;;;;;5050729;28;20124;-71
2022/11/17 10:26:18;;;;;;;7.88;5.35;;;;;;;;;;5028292;28;20052;-70
2022/11/17 10:28:44;;;;;;;13.18;7.97;;;;;;;;;;5029663;28;20043;-73
2022/11/17 10:31:10;;;;;;;10.77;6.57;;;;;;;;;;5017337;28;20037;-71
2022/11/17 10:33:37;;;;;;;12.15;6.97;;;;;;;;;;5033622;28;20090;-72
2022/11/17 10:36:06;;;;;;;12.48;7.63;;;;;;;;;;5045209;28;20111;-70
2022/11/17 10:38:32;;;;;;;11.73;7.80;;;;;;;;;;5043877;28;20048;-69
2022/11/17 10:41:01;;;;;;;12.57;8.57;;;;;;;;;;5045479;28;20040;-68
2022/11/17 10:43:35;;;;;;;12.80;7.47;;;;;;;;;;5033875;28;20045;-68
2022/11/17 10:46:05;;;;;;;11.98;8.30;;;;;;;;;;5022285;28;20049;-67
2022/11/17 10:48:33;;;;;;;13.15;8.18;;;;;;;;;;5031401;28;20094;-68
2022/11/17 10:51:00;;;;;;;13.57;8.88;;;;;;;;;;5049211;28;20077;-68
2022/11/17 10:53:26;;;;;;;13.73;8.93;;;;;;;;;;5031448;28;20525;-70
2022/11/17 10:55:57;;;;;;;14.00;9.02;;;;;;;;;;5036772;28;20049;-67
2022/11/17 10:58:24;;;;;;;;;;;9.00;99.90;;;;;;5034004;28;20152;-68
2022/11/17 11:00:55;;;;;;;11.73;7.60;;;;;;;;;;5047906;28;19995;-68
2022/11/17 11:03:23;;;;;;;11.95;7.07;;;;;;;;;;5052100;28;20052;-68
2022/11/17 11:06:01;;;;;;;12.57;7.82;;;;;;;;;;5037332;28;20049;-69
2022/11/17 11:08:50;;;;;;;13.48;7.25;;;;;;;;;;5037229;28;20053;-68
2022/11/17 11:11:23;;;;;;;10.65;5.65;;;;;;;;;;5035247;28;20094;-68
2022/11/17 11:13:54;;;;;;;7.47;5.45;;;;;;;;;;5048396;28;20076;-69
2022/11/17 11:16:20;;;;;;;11.15;5.05;;;;;;;;;;5020151;28;20511;-68
2022/11/17 11:18:48;;;;;;;7.78;4.25;;;;;;;;;;5035785;28;20080;-69
2022/11/17 11:21:17;;;;;;;6.40;3.90;;;;;;;;;;5055110;28;20120;-69
2022/11/17 11:23:45;;;;;;;5.15;3.00;;;;;;;;;;5035617;28;20036;-67
2022/11/17 11:26:17;;;;;;;8.15;2.53;;;;;;;;;;5034346;28;20045;-68
2022/11/17 11:28:46;;;;;;;8.32;2.83;;;;;;;;;;5051652;28;20118;-68
2022/11/17 11:31:21;;;;;;;7.13;2.60;;;;;;;;;;5054072;28;20044;-69
2022/11/17 11:33:50;;;;;;;5.13;2.10;;;;;;;;;;5053260;28;20053;-67
2022/11/17 11:36:34;;;;;;;7.47;1.75;;;;;;;;;;5040571;28;20099;-67
2022/11/17 11:39:12;;;;;;;4.72;2.03;;;;;;;;;;5025077;28;20106;-69
2022/11/17 11:41:56;;;;;;;5.82;1.80;;;;;;;;;;5035054;28;20095;-67
2022/11/17 11:45:00;;;;;;;5.10;1.50;;;10.40;99.90;;;;;;5049383;22;20049;-67
2022/11/17 11:47:35;;;;;;;5.70;1.88;;;;;;;;;;4959614;28;20068;-68
2022/11/17 11:50:22;;;;;;;4.20;1.42;;;;;;;;;;4994917;28;20058;-68
2022/11/17 11:52:51;;;;;;;4.32;1.33;;;;;;;;;;4992046;28;20046;-66
2022/11/17 11:55:28;;;;;;;6.10;1.80;;;;;;;;;;4978552;28;20046;-68
2022/11/17 11:58:04;;;;;;;7.43;1.50;;;;;;;;;;4961263;28;20062;-67
2022/11/17 12:00:30;;;;;;;5.82;1.70;;;;;;;;;;4994952;28;20049;-67
2022/11/17 12:03:20;;;;;;;5.68;1.20;;;;;;;;;;5006982;23;20049;-67
2022/11/17 12:05:58;;;;;;;3.42;1.58;;;;;;;;;;5034029;23;20149;-67
2022/11/17 12:08:27;;;;;;;6.63;1.45;;;;;;;;;;5020943;28;20056;-68
2022/11/17 12:10:59;;;;;;;5.25;1.13;;;;;;;;;;5012688;28;20103;-68
2022/11/17 12:13:25;;;;;;;3.60;1.10;;;;;;;;;;5020498;28;20041;-68
2022/11/17 12:16:11;;;;;;;5.03;1.50;;;;;;;;;;5030237;28;20041;-68
2022/11/17 12:18:37;;;;;;;6.43;1.70;;;;;;;;;;5032532;28;20041;-69
2022/11/17 12:21:14;;;;;;;4.30;1.45;;;;;;;;;;5030495;28;20482;-67
2022/11/17 12:24:06;;;;;;;5.28;1.92;;;;;;;;;;5012758;28;20056;-67
2022/11/17 12:26:35;;;;;;;3.97;1.58;;;;;;;;;;5030984;28;20041;-68
2022/11/17 12:29:20;;;;;;;2.05;1.00;;;;;;;;;;5029612;28;20042;-67
2022/11/17 12:31:51;;;;;;;4.65;1.58;;;;;;;;;;4996260;28;20128;-67
2022/11/17 12:34:36;;;;;;;5.25;1.30;;;;;;;;;;5013035;28;20038;-67
2022/11/17 12:37:14;;;;;;;5.45;1.33;;;;;;;;;;5017111;28;20045;-69
2022/11/17 12:39:53;;;;;;;4.70;1.30;;;;;;;;;;5014032;28;20041;-68
2022/11/17 12:42:19;;;;;;;5.55;1.23;;;;;;;;;;5012798;28;20042;-68
2022/11/17 12:44:49;;;;;;;4.63;1.42;;;;;;;;;;5030421;28;20478;-67
2022/11/17 12:47:15;;;;;;;4.32;1.67;;;;;;;;;;5047313;28;20042;-68
2022/11/17 12:49:50;;;;;;;7.93;1.58;;;;;;;;;;5033036;28;20045;-67
2022/11/17 12:52:26;;;;;;;3.85;1.65;;;;;;;;;;5014204;28;20048;-67
2022/11/17 12:55:02;;;;;;;2.28;1.00;;;;;;;;;;5015759;28;20038;-67
2022/11/17 12:57:31;;;;;;;7.68;1.65;;;;;;;;;;4999289;28;20050;-68
2022/11/17 13:00:17;;;;;;;3.63;1.10;;;;;;;;;;5026423;28;20046;-68
2022/11/17 13:02:46;;;;;;;8.52;1.55;;;;;;;;;;5030239;28;20045;-68
2022/11/17 13:05:18;;;;;;;4.22;1.50;;;;;;;;;;5022026;28;20119;-68
2022/11/17 13:07:44;;;;;;;6.60;2.15;;;;;;;;;;5021523;28;20499;-67
2022/11/17 13:10:23;;;;;;;5.40;1.63;;;;;;;;;;5034779;28;20405;-68
2022/11/17 13:12:49;;;;;;;5.50;1.83;;;;;;;;;;5034458;28;20041;-67
2022/11/17 13:15:22;;;;;;;4.65;1.63;;;;;;;;;;5015192;28;20046;-67
2022/11/17 13:17:49;;;;;;;5.03;1.40;;;;;;;;;;5016540;28;20084;-67
2022/11/17 13:20:28;;;;;;;4.78;1.50;;;;;;;;;;5033060;28;20052;-68
2022/11/17 13:23:03;;;;;;;7.18;1.42;;;;;;;;;;5008098;28;20041;-66
2022/11/17 13:25:29;;;;;;;10.65;1.88;;;;;;;;;;5032138;28;20440;-67
2022/11/17 13:27:55;;;;;;;13.10;2.53;;;;;;;;;;5025634;28;20100;-66
2022/11/17 13:30:23;;;;;;;11.40;1.77;;;;;;;;;;5014370;28;20524;-69
2022/11/17 13:32:49;;;;;;;8.00;1.70;;;;;;;;;;5019349;28;20036;-67
2022/11/17 13:35:29;;;;;;;5.15;1.25;;;;;;;;;;5036571;28;20489;-68
2022/11/17 13:38:04;;;;;;;7.15;1.50;;;;;;;;;;5017438;28;20128;-67
2022/11/17 13:40:30;;;;;;;3.75;1.65;;;;;;;;;;5051099;28;20099;-69
2022/11/17 13:42:57;;;;;;;4.93;1.77;;;;;;;;;;5014951;28;20049;-68
2022/11/17 13:45:23;;;;;;;6.40;1.75;;;;;;;;;;5005983;28;20543;-69
2022/11/17 13:47:50;;;;;;;5.43;2.03;;;;;;;;;;5043730;28;20041;-68
2022/11/17 13:50:25;;;;;;;6.65;2.00;;;;;;;;;;5016489;28;20044;-69
2022/11/17 13:53:02;;;;;;;5.53;1.67;;;;;;;;;;5014154;28;20134;-68
2022/11/17 13:55:28;;;;;;;6.45;2.00;;;;;;;;;;5032756;28;20037;-68
2022/11/17 13:58:00;;;;;;;3.67;1.70;;;;;;;;;;5036763;28;20089;-68
2022/11/17 14:00:26;;;;;;;5.22;1.80;;;;;;;;;;5062530;28;20124;-68
2022/11/17 14:02:53;;;;;;;9.43;1.95;;;;;;;;;;5043164;28;20048;-70
2022/11/17 14:05:22;;;;;;;4.70;1.63;;;;;;;;;;5013979;28;20049;-69
2022/11/17 14:07:49;;;;;;;6.30;1.98;;;;;;;;;;5049040;28;20045;-68
2022/11/17 14:10:21;;;;;;;6.63;1.30;;;;;;;;;;5053093;28;20069;-68
2022/11/17 14:12:52;;;;;;;3.22;1.25;;;;;;;;;;4997573;28;20048;-69
2022/11/17 14:15:18;;;;;;;;;;;;;;;;;;5051231;28;20050;-68
2022/11/17 14:17:49;;;;;;;6.35;1.20;;;;;;;;;;5042919;28;20003;-68
2022/11/17 14:20:19;;;;;;;;;;;10.30;99.90;;;;;;5015250;28;20461;-68
2022/11/17 14:23:07;;;;;;;3.28;1.10;;;10.10;99.90;;;;;;4997961;28;20350;-67
2022/11/17 14:25:52;;;;;;;4.47;1.23;;;;;;;;;;5051519;28;20044;-67
2022/11/17 14:28:19;;;;;;;3.60;1.17;;;;;;;;;;5036176;28;20098;-68
2022/11/17 14:30:49;;;;;;;6.60;1.70;;;;;;;;;;5032520;28;20048;-67
2022/11/17 14:33:15;;;;;;;7.57;2.65;;;;;;;;;;5053455;28;20392;-67
2022/11/17 14:35:41;;;;;;;6.30;1.45;;;;;;;;;;5041446;28;20049;-67
2022/11/17 14:38:09;;;;;;;5.70;1.40;;;;;;;;;;5052808;28;20041;-67
2022/11/17 14:40:35;;;;;;;4.80;1.83;;;;;;;;;;5039992;28;20045;-67
2022/11/17 14:43:01;;;;;;;3.75;1.58;;;;;;;;;;5038153;28;20084;-67
2022/11/17 14:45:28;;;;;;;3.30;1.27;;;;;;;;;;5032453;28;20037;-68
2022/11/17 14:47:54;;;;;;;2.95;0.90;;;;;;;;;;5033173;28;20049;-70
2022/11/17 14:50:20;;;;;;;8.07;1.42;;;;;;;;;;5020905;28;20057;-69
2022/11/17 14:52:46;;;;;;;5.32;1.42;;;;;;;;;;5055333;28;20350;-69
2022/11/17 14:55:13;;;;;;;6.65;1.75;;;;;;;;;;5055350;28;20040;-69
2022/11/17 14:57:39;;;;;;;8.82;1.95;;;;;;;;;;5053426;28;20045;-71
2022/11/17 15:00:06;;;;;;;9.85;2.28;;;;;;;;;;5052881;28;20037;-72
2022/11/17 15:02:33;;;;;;;7.22;1.98;;;;;;;;;;5075189;28;20140;-70
2022/11/17 15:04:59;;;;;;;6.20;1.83;;;;;;;;;;5071607;28;20048;-71
2022/11/17 15:07:26;;;;;;;4.28;1.40;;;;;;;;;;5045340;28;20044;-71
2022/11/17 15:09:52;;;;;;;7.28;1.77;;;;;;;;;;5061748;28;20108;-70